Timeline UpdatesTrip UpdatesNews PostsPvt Posts♥♥Travel TipsAdmin PostsConv PostsFollowed PostsChat RequestsBlog PostsPNR Posts

Disclaimer
Search
 
 
Sat Nov 1, 2014 14:34:55 ISTHomeTrainsΣChainsAtlasPNRForumGalleryNewsFAQTripsMembersLoginFeedback
No Recent News for this Train
Other Trains in the News **new
Latest...
Will stop at Magra on 23/9/14 #1220549
Sun Sep 21, 2014 (06:10PM)
⇐ Return Journey: Train# 53044

53043/Howrah - Rajgir Fast Passenger (UnReserved)

Time-Table HAS CHANGED.
Sep 21 2014 (6:10PM)
Change Departure Station:
Change Arrival Station:
Post a Train Travel TipPost a Train Travel Tip **new
Post a Comment/Question/Picture/VideoPost a Comment/Question/Picture/Video
Pantry/Catering
✕ NO Pantry Car
✕ NO Catering
RSA - Rake Sharing
Rake/Coach Composition
Loco
HWH WDM 3A/3D
News    PNR    Forum    Time-Table    Availability    Fare Chart    Map    Arr/Dep History    Trips    Gallery    ΣChains    X/O    Timeline    
Travel Time: 23h 45m    80 halts    Distance: 656 km    Avg Speed: 27 km/hr
Type: Passenger
Zone: ER/Eastern
Departs @ 11:10 (Avg 3m late)
Platform# 10
SMTWTFS
Kolkata Howrah Junction/HWH 
Arrives @ 10:55 +1 night (Avg 1h 9m late)
Platform# ???
SMTWTFS
Rajgir/RGD 

80 halts. 160 intermediate Stations between Kolkata Howrah Junction and Rajgir

Show ALL intermediate Stations  Show Old Time-Table

#TrkCodeStation NameX/OArrivesAvgDepartsAvgHaltPFDay#KmSpeedElevZoneAddress
1/==/HWHKolkata Howrah Junction (23)»  -11:10+31010.04510mERHowrah 711101, West Bengal
2/==/SRPSerampore (4)X  11:36+1711:39+163m--119.53811mERdist - hooghly, West Bengal
3/==/SHESeoraphuli Junction (6)  11:43+1711:45+192m--122.17113mERBaidyabati, West Bengal
4/==/CGRChandan Nagar (3)X  11:54+2111:57+233m--132.76016mERDist -HOOGHLY - 712136, West Bengal
5/==/CNSChuchura (3)X  12:00-12:01-1m--135.72515mERDist - HOOGHLY - 712102, West Bengal
6/==/BDCBandel Junction (7)X  12:10+2212:14+214m--139.57514mERdist - HOOGHLY, West Bengal
7/==/PDAPundooah (3)  12:31+2612:32+261m--160.77018mERPandua, West Bengal
8/==/MYMMemari (4)  12:49 12:50+3212:50 12:51+321m--181.76025mERMemari, West Bengal
9/==/BWNBarddhaman Junction (8)X  13:16+2013:21+235m--1106.74634mERDist - Barddhaman, West Bengal
10/==%KANKhana Junction (5)X  13:37 13:38+5413:38 13:39+541m11119.85942mERDist - Bardhaman, West Bengal
11%==%JTLJhapater Dhal (4)  13:45+5413:46+551m--1125.73836mERDist - Bardhaman, West Bengal
12%==%BPSBanpas (3)  13:52+5413:53+541m--1129.53746mERDist - Bardhaman, West Bengal
13%==%NRXNoadar Dhal (2)  13:59+1:0114:00+1:031m--1133.25546mERdist - bardhaman, West Bengal
14%==%GKHGuskara (2)  14:07+5914:12+565m21139.67441mERDist - Bardhaman, West Bengal
15%==%PCQPichkurirdhal (3)X  14:17+1:0114:18+1:061m--1145.85738mERDist - Bardhaman, West Bengal
16%==%BDHBhedia (2)X  14:23+1:0514:24+1:051m--1150.55341mERDist - Bardhaman, West Bengal
17%==%BHPBolpur Shantiniketan (3)  14:33+5414:36+543m--1158.54259mERDist - Birbhum, West Bengal
18%==%PNEPrantik (3)  14:42+1:0214:43+1:061m--1162.74748mERDist - Birbhum, West Bengal
19%==%KPLEKopai (2)X  14:52+1:1114:53+1:141m--1169.86148mERDist - Birbhum, West Bengal
20%==%AMPAhmadpur Junction (3)X  15:01+1:1715:02+1:171m--1178.05646mERDist - Birbhum, West Bengal
21%==%BSLEBataspur (2)  15:08+1:1815:09+1:241m--1183.65154mERDist - Birbhum, West Bengal
22%==%SNTSainthia Junction (4)X  15:18+1:1215:20+1:162m31191.28758mERDist - Birbhum, West Bengal
23%==%GHLEGadadharpur (3)X  15:25+1:3515:26+1:411m11198.57152mERDist - Birbhum, West Bengal
24%==%MLVMallarpur (3)  15:33+1:4415:34+1:451m--1206.85246mERDist - Birbhum, West Bengal
25%==%TPFTarapith Road (2)X  15:40+1:4615:41+1:461m--1212.02345mERDist - Birbhum, West Bengal
26%==%RPHRampurhat (3)X  16:01 16:00+1:3016:08+1:297 8m--1219.25041mERDIST - Birbhum, West Bengal
27%==%NHTNalhati Junction (4)X  16:25+1:4316:27+1:452m31233.38648mERDist - Birbhum, West Bengal
28%==%CTRChatra (3)  16:33+1:4716:34+1:481m--1241.96542mERDist - Birbhum, West Bengal
29%==%MRRMurarai (3)  16:41+1:5016:42+1:551m--1249.55036mERDist - Birbhum, West Bengal
30%==%BSBRBanshlai Bridge (2)  17:05 16:48+1:5817:06 16:49+2:001m--1254.56735mERDist - Birbhum, West Bengal
31%==%RJGRajgram (3)XO  17:46 16:55+2:0217:48 16:56+2:022 1m31261.2532mERDist - Birbhum, West Bengal
32%==%NGFNagarnabi (3)  17:54+1:1117:56+1:102m31266.44630mERState Highway 5, Jharkhand
33%==%PKRPakur (2)  18:03+1:1018:07+1:104m11271.85137mERDist:- Pakur, Jharkhand
34%==%TBBTilbhita (3)  18:12+1:1718:13+1:201m--1276.04531mERTilbhita, Jharkhand
35%==%KLPKotalpukur (3)X  18:23+1:0818:24+1:101m--1283.62240mERKotalpukur, Jharkhand
36%==%GMANGumani (3)  18:42+1:1018:43+1:121m--1290.24431mERGumani, Jharkhand
37|==|BHWBarharwa Junction (3)X  18:53+1:1818:58+1:235m11297.65336mERBarharwa, Jharkhand
38|==|BKLEBakudi (3)  19:07+1:2519:08+1:251m--1305.56665mERBakudi, Jharkhand
39|==!TPHTinpahar Junction (3)  19:17 19:16+1:4419:19 19:18+1:482m11314.35845mERBamangawan, Jharkhand
40!==!KXEKalian Chak  19:24 19:23+1:5219:25 19:24+1:581m--1319.15845mERKalian Chak, Jharkhand
41!==!TLJTaljhariX  19:30 19:29+2:0019:31 19:30+2:081m--1323.91538mERTaljhari, Jharkhand
42!==!MJPMaharajpur (2)X  20:25+1:3120:32+1:377m--1338.14134mERMoharajpur, Jharkhand
43!==!SLJSakrigali Junction (3)X  20:40 20:41+1:3920:46+1:456 5m--1344.32945mERSakrigali, Jharkhand
44!==!SBGSahibganj Junction (3)X  21:02+1:3621:12+1:4810m21352.03538mERSahibganj, Jharkhand
45!==!MZCMirza Cheuki (3)  21:38+1:5221:40+1:522m11367.13638mERBihar, Bihar
46!==!PPTPirpainti (2)X  21:54+1:4322:02+1:528m--1375.63653mERBhagalpur, Bihar
47!==!SVRPShivanarayanpur (2)X  22:17+1:4822:18+1:501m--1384.54047mERShivanarayanpur, Bihar
48!==!CLGKahalgaon (2)O  22:36 22:35+1:5522:57 22:36+2:0821 1m21396.0944mERBhagalpur, Bihar
49!==!EKCEkchari (1)  23:04+1:4823:05+1:491m11400.36937mERNational Highway 80, Bihar
50!==!GGAGhoga (2)  23:10+1:5123:15+1:515m--1406.05842mERGhoga, Bihar
51!==!LMMLailakh Mamalkha (2)  23:21+1:5523:22+1:571m--1411.84036mERLailakh Mamlkha, Bihar
52!==!SBOSabaur (3)  23:32+1:5823:34+1:582m--1418.54542mERSabour, Bihar
53!==|BGPBhagalpur Junction (6)X  23:44+1:1523:59+1:1515m--1426.02649mERBhagalpur, Bihar
54|==|NATNathnagar (2)  00:10+2:0100:11+2:011m--2430.79948mERBhagalpur, Bihar
55|==|AKNAkbarnagar (3)  00:19+2:0600:21+2:062m--2440.94139mERTilakpur, Bihar
56|==|MVVMaheshi (2) new halt!!  00:26-00:27-1m--2444.36637mERTilakpur, Bihar
57|==|SGGSultanGanj (3)  00:33+1:5800:37+2:074m--2451.06042mERSultanganj, Bihar
58|==|BUPBariarpur (3)  00:55+2:2200:57+2:262m--2468.91642mERMunger, Bihar
59|-=|JMPJamalpur Junction (4)X  01:38+1:4501:48+1:5010m--2480.04359mERDist: Munger 06344-243101, Bihar
60|==|DRTPDasharathpur (2)  01:57+2:3101:59+2:312m--2486.46548mERDharhara, Bihar
61|==|DRHDharhara (2)  02:04+2:3402:06+2:332m--2491.96055mERDharhara, Bihar
62|==|MSDNMasudan (2)  02:12+2:3402:13+2:341m--2497.84845mERMasudan, Bihar
63|==|AHAAbhaipur (3)  02:18+2:3402:19+2:381m--2501.96252mERAbhaipur, Bihar
64!==!KJHKajra (2)X  02:23 02:26+2:3902:25 02:28+2:402m--2509.12950mERLakhisarai District, Bihar
65!==!DNREDhanauri  02:48+2:3702:50+2:362m--2518.81848mERNational Highway 80, Bihar
66|-=!KIULKiul Junction (5)XO  03:10+2:3503:38+2:3128m--2524.91053mECRDist. Lakhisarai, Bihar
67/==/LKRLuckeesarai Junction (2)X  03:46+2:2503:48+2:252m--2526.25652mECRLakhisarai, Bihar
68/==/MKBMankathaX  03:54+2:3903:55+2:401m--2531.83847mECRNational Highway 80, Bihar
69/-=/BRYABarhiya (3)XO  04:10+2:3504:12+2:382m--2541.2747mECRBarahiya, Bihar
70/==/RDUMRampur Dumra (3)O  05:02+2:0705:04+2:072m--2546.81046mECRNational Highway 80, Bihar
71/==/HTZHathidah Junction (2)O  05:27+1:4905:29+1:492m22550.62050mECRMusahari, Bihar
72/==/MKAMokama Junction (4)X  05:54+1:5905:56+2:042m--2559.01248mECRPatna, Bihar
73/==/MORMor (2)  06:34+1:1606:36+1:152m--2566.32746mECRMor, Bihar
74/==/PHKPunarakh (2)  06:54+1:2506:55+1:271m--2574.54751mECRPunarakh, Bihar
75/==/BARHBarh (3)X  07:08+1:2507:10+1:272m--2584.74249mECRBarh, Bihar
76/==/ATLAthmal Gola (2)  07:23+1:1607:25+1:172m--2593.83652mECRPatna, Bihar
77/==/BKPBakhtiyarpur Junction (5)  07:40+1:1608:05+1:5325m--2602.86451mECRPatna, Bihar
78|--|HRTHarnaut (3)  08:15+1:5908:16+2:051m--2613.54449mECRHarnaut, Bihar
79|--|WENAWena (2)  08:23+2:0608:24+2:131m--2618.73147mECRWena, Bihar
80|--|BEHSBihar Sharif (2)  08:51+2:0808:52+2:131m--2632.63456mECR06112-222306, Bihar
81|--|NLDNalanda (2)X  09:14+2:1109:15+2:341m--2645.2763mECRNational Highway 82, Bihar
82|--|RGDRajgir (3)•  10:55+1:09---2656.4-71mECRRajgir, Bihar
Scroll to Top
Scroll to Bottom